VEILLE D'ORAGES VIOLENTS EN VIGUEUR

Rapports Métar

 

CWEW - L'assomption, Quebec, Canada
Distance de la station: SSE 46km
Mise à jour: 21/09/2017 02:00

 Vents de N
Vent: N 7 km/h
Température: 15°C
Point de rosée: 10°C
Humidité: 72%
2017/09/21 06:00 CWEW 210600Z AUTO 36004KT 15/10 RMK AO1 SLP196 T01520095 53006
CWHM - Varennes, Quebec, Canada
Distance de la station: SSE 58km
Mise à jour: 25/10/2016 10:00
PAS à jour

 Vents de O
Vent: O 19 km/h, Rafale: 28 km/h
Température: 4°C
Refroidissement éolien: 0°C
Point de rosée: -2°C
Humidité: 65%
2016/10/25 14:00 CWHM 251400Z AUTO 28010G15KT 04/M02 RMK AO1 PK WND 28018/1302 T00391017
 
CWBS - Lac St Pierre (a, Quebec, Canada
Distance de la station: E 60km
Mise à jour: 21/09/2017 02:00

 Vents de NNE
Vent: NNE 22 km/h
Température: 17°C
Point de rosée: 11°C
Humidité: 68%
2017/09/21 06:00 CWBS 210600Z AUTO 02012KT 17/11 RMK AO1 T01720113
CYMX - Montreal/Mirabel, Quebec, Canada
Distance de la station: SSO 62km
Mise à jour: 21/09/2017 02:00
Few Clouds
Few Clouds
 Vents de N
Vent: N 7 km/h
Température: 16°C
Point de rosée: 12°C
Humidité: 77%
Baromètre: 1019.3 hPa
Nuages: Few Clouds
Visibilité: 40 km
Détail des nuages: Few Clouds 1524 m
Few Clouds 7620 m
2017/09/21 06:00 CYMX 210600Z 01004KT 320V070 25SM FEW050 FEW250 16/12 A3010 RMK SC1CI1 SC TR SLP194 DENSITY ALT 300FT
 
CWJT - St Jovite (autob, Quebec, Canada
Distance de la station: OSO 64km
Mise à jour: 21/09/2017 02:00

 Vents de NNE
Vent: NNE 2 km/h
Température: 13°C
Point de rosée: 13°C
Humidité: 100%
2017/09/21 06:00 CWJT 210600Z AUTO 02001KT 13/13 RMK AO1 SLP195 T01270126 53008
CWTA - Mc Tavish (aut), Quebec, Canada
Distance de la station: S 77km
Mise à jour: 21/09/2017 02:00

 Vents de NNE
Vent: NNE 9 km/h
Température: 18°C
Point de rosée: 10°C
Humidité: 60%
2017/09/21 06:00 CWTA 210600Z AUTO 02005KT 18/10 RMK AO1 SLP188 T01800097 52007
 
CYHU - Saint Hubert Arp, Quebec, Canada
Distance de la station: SSE 77km
Mise à jour: 21/09/2017 02:00
Few Clouds
Few Clouds
 Vents de N
Vent: N 17 km/h
Température: 15°C
Point de rosée: 11°C
Humidité: 77%
Baromètre: 1018.6 hPa
Nuages: Few Clouds
Visibilité: 14 km
Détail des nuages: Few Clouds 1128 m
2017/09/21 06:00 CYHU 210600Z AUTO 01009KT 9SM FEW037 15/11 A3008 RMK SLP188
CYUL - Montreal/Dorval, Quebec, Canada
Distance de la station: S 80km
Mise à jour: 21/09/2017 02:00
Few Clouds
Few Clouds
 Vents de N
Vent: N 19 km/h
Température: 17°C
Point de rosée: 12°C
Humidité: 73%
Baromètre: 1018.6 hPa
Nuages: Few Clouds
Visibilité: 24 km
Détail des nuages: Few Clouds 1219 m
2017/09/21 06:00 CYUL 210600Z 01010KT 15SM FEW040 17/12 A3008 RMK SC1 SC TR SLP187 DENSITY ALT 300FT
 
CWNQ - Nicolet (autob), Quebec, Canada
Distance de la station: E 81km
Mise à jour: 21/09/2017 02:00

 Vents de NE
Vent: NE 11 km/h
Température: 15°C
Point de rosée: 9°C
Humidité: 68%
2017/09/21 06:00 CWNQ 210600Z AUTO 04006KT 15/09 RMK AO1 SLP192 T01490087 53007
CWVQ - Ste Anne De Bell, Quebec, Canada
Distance de la station: S 87km
Mise à jour: 21/09/2017 02:00

 Vents de N
Vent: N 11 km/h
Température: 17°C
Point de rosée: 15°C
Humidité: 88%
2017/09/21 06:00 CWVQ 210600Z AUTO 01006KT 17/15 RMK AO1 SLP186 T01680147 53007
 
CWTY - Trois Rivieres, Quebec, Canada
Distance de la station: ENE 93km
Mise à jour: 21/09/2017 02:00

 Vents de N
Vent: N 6 km/h
Température: 14°C
Point de rosée: 10°C
Humidité: 77%
2017/09/21 06:00 CWTY 210600Z AUTO 36003KT 14/10 RMK AO1 SLP193 T01440095 53009
CXSH - Shawinigan, Quebec, Canada
Distance de la station: ENE 97km
Mise à jour: 21/09/2017 02:00

 Vents de N
Vent: N 4 km/h
Température: 13°C
Point de rosée: 12°C
Humidité: 94%
2017/09/21 06:00 CXSH 210600Z AUTO 36002KT 13/12 RMK AO1 SLP154 T01300116 58006
 
CWIZ - L'acadie, Quebec, Canada
Distance de la station: SSE 104km
Mise à jour: 21/09/2017 02:00

 Vents de N
Vent: N 6 km/h
Température: 16°C
Point de rosée: 13°C
Humidité: 83%
2017/09/21 06:00 CWIZ 210600Z AUTO 36003KT 16/13 RMK AO1 T01560131
CWIT - St Clothilde (a, Quebec, Canada
Distance de la station: S 113km
Mise à jour: 21/09/2017 02:00

 Vents de SSO
Vent: SSO 2 km/h
Température: 15°C
Point de rosée: 14°C
Humidité: 94%
2017/09/21 06:00 CWIT 210600Z AUTO 21001KT 15/14 RMK AO1 SLP180 T01500142 53003
 
CMGB - Granby, Quebec, Canada
Distance de la station: SE 116km
Mise à jour: 21/09/2017 02:30

 Vents de NNE
Vent: NNE 4 km/h
Température: 15°C
Point de rosée: 14°C
Humidité: 94%
2017/09/21 06:30 CMGB 210630Z AUTO 03002KT 15/14 RMK AO1 SLP179 T01520138 53003
CWBZ - St Anicet, Quebec, Canada
Distance de la station: SSO 127km
Mise à jour: 21/09/2017 02:00

 Vents de calm
Vent: calme
Température: 15°C
Point de rosée: 15°C
Humidité: 100%
2017/09/21 06:00 CWBZ 210600Z AUTO 00000KT 15/15 RMK AO1 SLP181 T01480147 53006
 
CWHQ - Deschambaults, Quebec, Canada
Distance de la station: ENE 144km
Mise à jour: 21/09/2017 02:00

 Vents de NO
Vent: NO 2 km/h
Température: 8°C
Point de rosée: 8°C
Humidité: 100%
2017/09/21 06:00 CWHQ 210600Z AUTO 32001KT 08/08 RMK AO1 T00820082
CWFQ - Frelighsburg, Quebec, Canada
Distance de la station: SSE 145km
Mise à jour: 21/09/2017 02:00

 Vents de NNO
Vent: NNO 4 km/h
Température: 17°C
Point de rosée: 17°C
Humidité: 100%
2017/09/21 06:00 CWFQ 210600Z AUTO 33002KT 17/17 RMK AO1 SLP175 T01700166 53001
 
KFSO - Highgate, Vermont, USA
Distance de la station: SSE 147km
Mise à jour: 21/09/2017 02:15
Mist, clair
Mist, clair
 Vents de N
Vent: N 6 km/h
Température: 17°C
Point de rosée: 17°C
Humidité: 100%
Baromètre: 1017.6 hPa
Résumé: Mist
Nuages: clair
Visibilité: 8 km
2017/09/21 06:15 KFSO 210615Z AUTO 35003KT 5SM BR CLR 17/17 A3005 RMK AO2 T01700170
CWDQ - La Tuque, Quebec, Canada
Distance de la station: NNE 154km
Mise à jour: 21/09/2017 02:00

 Vents de calm
Vent: calme
Température: 8°C
Point de rosée: 7°C
Humidité: 93%
2017/09/21 06:00 CWDQ 210600Z AUTO 00000KT 08/07 RMK AO1 SLP214 T00750074 51009